createdAt,value
2022-08-26T00:00:56.324Z,102101.66
2022-08-26T00:03:27.572Z,102102.91
2022-08-26T00:05:55.425Z,102107.19
2022-08-26T00:08:25.397Z,102108.88
2022-08-26T00:10:55.410Z,102095.91
2022-08-26T00:13:23.128Z,102109.16
2022-08-26T00:15:55.866Z,102097.66
2022-08-26T00:18:24.966Z,102101.00
2022-08-26T00:20:53.572Z,102102.53
2022-08-26T00:23:25.678Z,102098.97
2022-08-26T00:25:56.839Z,102097.16
2022-08-26T00:28:28.659Z,102107.44
2022-08-26T00:30:56.395Z,102103.28
2022-08-26T00:33:25.462Z,102101.03
2022-08-26T00:35:55.048Z,102097.31
2022-08-26T00:38:26.072Z,102091.38
2022-08-26T00:40:55.216Z,102085.13
2022-08-26T00:43:25.700Z,102085.22
2022-08-26T00:46:02.290Z,102087.69
2022-08-26T00:48:34.379Z,102091.53
2022-08-26T00:51:07.027Z,102094.25
2022-08-26T00:53:37.758Z,102087.44
2022-08-26T00:56:13.818Z,102093.03
2022-08-26T00:58:45.002Z,102085.50
2022-08-26T01:01:13.086Z,102080.09
2022-08-26T01:03:43.122Z,102078.91
2022-08-26T01:06:13.218Z,102078.38
2022-08-26T01:08:43.210Z,102073.66
2022-08-26T01:11:11.204Z,102072.91
2022-08-26T01:13:41.121Z,102062.72
2022-08-26T01:16:15.964Z,102068.66
2022-08-26T01:18:47.332Z,102077.31
2022-08-26T01:21:20.183Z,102078.69
2022-08-26T01:23:57.372Z,102071.38
2022-08-26T01:26:27.070Z,102078.09
2022-08-26T01:28:56.059Z,102060.03
2022-08-26T01:31:27.665Z,102063.56
2022-08-26T01:34:02.278Z,102054.31
2022-08-26T01:36:32.368Z,102057.53
2022-08-26T01:39:01.386Z,102052.53
2022-08-26T01:41:38.334Z,102046.22
2022-08-26T01:44:07.810Z,102045.88
2022-08-26T01:46:42.044Z,102052.28
2022-08-26T01:49:09.880Z,102050.34
2022-08-26T01:51:39.782Z,102043.72
2022-08-26T01:54:13.708Z,102048.09
2022-08-26T01:56:42.162Z,102049.47
2022-08-26T01:59:12.385Z,102049.56
2022-08-26T02:01:45.498Z,102049.03
2022-08-26T02:04:16.849Z,102048.91
2022-08-26T02:06:48.928Z,102042.03
2022-08-26T02:09:19.937Z,102039.91
2022-08-26T02:11:52.735Z,102042.22
2022-08-26T02:14:22.639Z,102040.88
2022-08-26T02:16:55.802Z,102033.88
2022-08-26T02:19:27.658Z,102037.41
2022-08-26T02:22:01.173Z,102028.91
2022-08-26T02:24:31.619Z,102035.53
2022-08-26T02:27:01.681Z,102023.13
2022-08-26T02:29:34.767Z,102027.13
2022-08-26T02:32:04.622Z,102026.28
2022-08-26T02:34:34.892Z,102028.75
2022-08-26T02:37:06.171Z,102024.16
2022-08-26T02:39:37.974Z,102014.59
2022-08-26T02:42:06.045Z,102005.47
2022-08-26T02:44:36.048Z,102009.28
2022-08-26T02:47:06.200Z,102006.91
2022-08-26T02:49:33.856Z,102000.00
2022-08-26T02:52:03.553Z,102002.25
2022-08-26T02:54:33.416Z,101998.22
2022-08-26T02:57:02.688Z,102004.41
2022-08-26T02:59:33.375Z,102007.19
2022-08-26T03:02:05.472Z,102001.88
2022-08-26T03:04:33.577Z,102002.84
2022-08-26T03:07:01.183Z,102004.88
2022-08-26T03:09:33.167Z,102002.59
2022-08-26T03:12:02.222Z,101995.22
2022-08-26T03:14:30.003Z,101998.22
2022-08-26T03:17:02.360Z,101989.44
2022-08-26T03:19:32.178Z,101989.97
2022-08-26T03:22:05.916Z,101984.09
2022-08-26T03:24:33.545Z,101981.34
2022-08-26T03:27:06.014Z,101983.25
2022-08-26T03:29:57.820Z,101978.00
2022-08-26T03:32:26.978Z,101983.25
2022-08-26T03:34:57.920Z,101984.53
2022-08-26T03:37:27.777Z,101984.47
2022-08-26T03:39:55.478Z,101985.53
2022-08-26T03:42:26.267Z,101989.53
2022-08-26T03:44:55.785Z,101980.34
2022-08-26T03:47:23.488Z,101981.09
2022-08-26T03:49:53.759Z,101985.03
2022-08-26T03:52:23.321Z,101970.50
2022-08-26T03:54:50.986Z,101970.41
2022-08-26T03:57:20.889Z,101977.00
2022-08-26T03:59:53.303Z,101981.78
2022-08-26T04:02:23.699Z,101979.41
2022-08-26T04:04:53.420Z,101974.69
2022-08-26T04:07:21.027Z,101969.78
2022-08-26T04:09:50.898Z,101974.50
2022-08-26T04:12:20.400Z,101978.13
2022-08-26T04:14:48.116Z,101974.78
2022-08-26T04:17:19.220Z,101976.19
2022-08-26T04:19:57.102Z,101976.66
2022-08-26T04:22:26.912Z,101966.13
2022-08-26T04:24:57.520Z,101967.25
2022-08-26T04:27:26.162Z,101964.81
2022-08-26T04:29:55.340Z,101967.25
2022-08-26T04:32:24.719Z,101961.50
2022-08-26T04:34:54.783Z,101959.69
2022-08-26T04:37:25.302Z,101963.69
2022-08-26T04:39:53.533Z,101966.97
2022-08-26T04:42:25.843Z,101966.78
2022-08-26T04:44:56.472Z,101953.28
2022-08-26T04:47:30.342Z,101964.94
2022-08-26T04:50:02.251Z,101966.88
2022-08-26T04:52:31.013Z,101968.03
2022-08-26T04:54:58.902Z,101973.13
2022-08-26T04:57:29.148Z,101958.81
2022-08-26T04:59:59.840Z,101962.28
2022-08-26T05:02:29.093Z,101952.13
2022-08-26T05:05:01.048Z,101954.59
2022-08-26T05:07:28.916Z,101948.44
2022-08-26T05:09:56.795Z,101953.28
2022-08-26T05:12:30.133Z,101953.28
2022-08-26T05:14:58.422Z,101946.06
2022-08-26T05:17:28.342Z,101947.25
2022-08-26T05:20:00.352Z,101942.88
2022-08-26T05:22:28.173Z,101952.72
2022-08-26T05:24:55.954Z,101940.31
2022-08-26T05:27:28.183Z,101948.72
2022-08-26T05:29:58.351Z,101935.28
2022-08-26T05:32:26.206Z,101951.78
2022-08-26T05:35:00.714Z,101946.94
2022-08-26T05:37:30.551Z,101947.91
2022-08-26T05:39:58.917Z,101956.13
2022-08-26T05:42:29.198Z,101961.28
2022-08-26T05:44:58.984Z,101955.19
2022-08-26T05:47:28.148Z,101953.19
2022-08-26T05:49:59.331Z,101953.13
2022-08-26T05:52:31.559Z,101948.38
2022-08-26T05:54:59.579Z,101951.09
2022-08-26T05:57:29.246Z,101954.78
2022-08-26T05:59:59.879Z,101952.72
2022-08-26T06:02:28.982Z,101954.44
2022-08-26T06:04:58.345Z,101954.88
2022-08-26T06:07:54.116Z,101946.88
2022-08-26T06:10:32.805Z,101947.19
2022-08-26T06:13:11.843Z,101952.91
2022-08-26T06:15:45.733Z,101940.81
2022-08-26T06:18:16.322Z,101942.03
2022-08-26T06:20:57.012Z,101933.75
2022-08-26T06:23:43.114Z,101936.91
2022-08-26T06:26:11.572Z,101936.81
2022-08-26T06:28:43.608Z,101937.53
2022-08-26T06:31:16.088Z,101934.22
2022-08-26T06:33:46.494Z,101922.22
2022-08-26T06:36:23.846Z,101932.50
2022-08-26T06:38:55.702Z,101924.88
2022-08-26T06:41:24.167Z,101917.44
2022-08-26T06:43:54.893Z,101929.69
2022-08-26T06:46:23.201Z,101921.25
2022-08-26T06:48:54.358Z,101930.19
2022-08-26T06:51:29.955Z,101926.94
2022-08-26T06:54:00.563Z,101919.78
2022-08-26T06:56:29.481Z,101924.63
2022-08-26T06:59:01.563Z,101927.91
2022-08-26T07:01:32.004Z,101919.81
2022-08-26T07:04:10.368Z,101930.91
2022-08-26T07:06:43.137Z,101924.00
2022-08-26T07:09:13.926Z,101927.69
2022-08-26T07:11:42.507Z,101919.28
2022-08-26T07:14:10.280Z,101918.47
2022-08-26T07:16:43.012Z,101914.66
2022-08-26T07:19:11.626Z,101925.38
2022-08-26T07:21:46.012Z,101929.28
2022-08-26T07:24:15.259Z,101921.41
2022-08-26T07:26:43.284Z,101926.25
2022-08-26T07:29:16.688Z,101928.56
2022-08-26T07:31:45.268Z,101930.00
2022-08-26T07:34:16.362Z,101933.94
2022-08-26T07:36:49.012Z,101931.13
2022-08-26T07:39:19.167Z,101928.94
2022-08-26T07:41:47.821Z,101925.78
2022-08-26T07:44:17.152Z,101927.72
2022-08-26T07:46:52.302Z,101924.56
2022-08-26T07:49:21.830Z,101919.03
2022-08-26T07:51:53.595Z,101921.59
2022-08-26T07:54:24.636Z,101924.72
2022-08-26T07:56:55.869Z,101934.88
2022-08-26T07:59:28.457Z,101922.25
2022-08-26T08:01:59.178Z,101926.31
2022-08-26T08:04:29.802Z,101917.09
2022-08-26T08:06:59.002Z,101921.41
2022-08-26T08:09:29.065Z,101924.66
2022-08-26T08:11:59.004Z,101916.28
2022-08-26T08:14:28.770Z,101914.69
2022-08-26T08:16:58.984Z,101926.28
2022-08-26T08:19:36.539Z,101917.38
2022-08-26T08:22:17.153Z,101909.91
2022-08-26T08:24:49.903Z,101916.53
2022-08-26T08:27:23.990Z,101916.47
2022-08-26T08:29:56.087Z,101913.97
2022-08-26T08:32:26.300Z,101913.19
2022-08-26T08:34:53.880Z,101911.34
2022-08-26T08:37:23.208Z,101914.72
2022-08-26T08:40:01.173Z,101913.44
2022-08-26T08:42:39.685Z,101914.31
2022-08-26T08:45:11.992Z,101914.31
2022-08-26T08:47:44.036Z,101915.25
2022-08-26T08:50:22.843Z,101908.09
2022-08-26T08:52:57.476Z,101905.72
2022-08-26T08:55:37.364Z,101895.09
2022-08-26T08:58:12.270Z,101890.88
2022-08-26T09:00:52.690Z,101895.63
2022-08-26T09:03:38.042Z,101883.25
2022-08-26T09:06:17.055Z,101878.44
2022-08-26T09:08:50.710Z,101883.72
2022-08-26T09:11:20.953Z,101883.47
2022-08-26T09:13:51.154Z,101880.94
2022-08-26T09:16:21.599Z,101879.31
2022-08-26T09:19:04.789Z,101873.22
2022-08-26T09:21:33.588Z,101871.84
2022-08-26T09:24:05.160Z,101868.72
2022-08-26T09:26:48.251Z,101858.03
2022-08-26T09:29:24.063Z,101863.13
2022-08-26T09:31:54.818Z,101868.41
2022-08-26T09:34:28.300Z,101854.44
2022-08-26T09:36:58.203Z,101860.44
2022-08-26T09:39:33.697Z,101860.13
2022-08-26T09:42:11.426Z,101853.22
2022-08-26T09:44:59.451Z,101853.34
2022-08-26T09:47:32.365Z,101849.69
2022-08-26T09:50:12.390Z,101849.94
2022-08-26T09:52:42.843Z,101848.59
2022-08-26T09:55:17.120Z,101839.75
2022-08-26T09:57:51.103Z,101840.19
2022-08-26T10:00:34.128Z,101848.84
2022-08-26T10:03:06.327Z,101841.84
2022-08-26T10:05:42.384Z,101840.88
2022-08-26T10:08:24.544Z,101838.38
2022-08-26T10:10:57.998Z,101835.78
2022-08-26T10:13:35.150Z,101832.84
2022-08-26T10:16:12.053Z,101842.72
2022-08-26T10:18:43.662Z,101839.06
2022-08-26T10:21:17.912Z,101833.97
2022-08-26T10:23:52.564Z,101832.84
2022-08-26T10:26:28.990Z,101834.06
2022-08-26T10:29:05.655Z,101833.97
2022-08-26T10:31:44.200Z,101828.19
2022-08-26T10:34:16.361Z,101825.03
2022-08-26T10:37:16.016Z,101824.84
2022-08-26T10:39:46.216Z,101835.09
2022-08-26T10:42:24.617Z,101829.34
2022-08-26T10:44:58.631Z,101819.50
2022-08-26T10:47:34.191Z,101818.97
2022-08-26T10:50:05.227Z,101819.53
2022-08-26T10:52:50.092Z,101805.59
2022-08-26T10:55:26.346Z,101799.41
2022-08-26T10:58:05.027Z,101797.03
2022-08-26T11:00:58.356Z,101801.63
2022-08-26T11:03:36.710Z,101801.31
2022-08-26T11:06:23.290Z,101807.19
2022-08-26T11:08:54.809Z,101804.56
2022-08-26T11:11:48.010Z,101796.94
2022-08-26T11:14:46.150Z,101792.47
2022-08-26T11:18:05.354Z,101796.84
2022-08-26T11:20:39.301Z,101786.53
2022-08-26T11:23:50.811Z,101781.72
2022-08-26T11:26:55.674Z,101777.59
2022-08-26T11:29:59.503Z,101774.53
2022-08-26T11:32:48.693Z,101769.94
2022-08-26T11:35:50.711Z,101773.16
2022-08-26T11:38:28.165Z,101759.97
2022-08-26T11:40:59.560Z,101766.03
2022-08-26T11:43:34.706Z,101756.88
2022-08-26T11:46:09.217Z,101757.94
2022-08-26T11:48:41.151Z,101753.50
2022-08-26T11:51:13.420Z,101750.16
2022-08-26T11:53:47.172Z,101746.81
2022-08-26T11:56:26.427Z,101746.66
2022-08-26T11:59:01.292Z,101739.75
2022-08-26T12:01:37.616Z,101740.88
2022-08-26T12:04:09.427Z,101741.06
2022-08-26T12:06:45.253Z,101741.38
2022-08-26T12:09:21.612Z,101734.19
2022-08-26T12:11:49.733Z,101736.84
2022-08-26T12:14:21.046Z,101729.63
2022-08-26T12:16:50.553Z,101725.59
2022-08-26T12:19:29.458Z,101715.25
2022-08-26T12:22:05.268Z,101713.34
2022-08-26T12:24:33.406Z,101716.28
2022-08-26T12:27:18.471Z,101716.28
2022-08-26T12:30:02.688Z,101712.25
2022-08-26T12:32:32.609Z,101720.13
2022-08-26T12:37:38.514Z,101712.44
2022-08-26T12:40:34.333Z,101710.97
2022-08-26T12:43:04.719Z,101704.25
2022-08-26T12:45:37.497Z,101708.75
2022-08-26T12:48:11.159Z,101703.50
2022-08-26T12:50:48.215Z,101709.25
2022-08-26T12:53:24.337Z,101706.13
2022-08-26T12:55:56.781Z,101704.78
2022-08-26T12:58:31.155Z,101702.34
2022-08-26T13:01:22.683Z,101698.03
2022-08-26T13:03:54.381Z,101698.59
2022-08-26T13:06:27.398Z,101700.13
2022-08-26T13:08:57.911Z,101691.09
2022-08-26T13:11:30.071Z,101693.66
2022-08-26T13:14:02.581Z,101696.19
2022-08-26T13:16:39.745Z,101687.31
2022-08-26T13:19:13.698Z,101688.75
2022-08-26T13:21:47.921Z,101689.47
2022-08-26T13:24:20.057Z,101688.50
2022-08-26T13:26:51.295Z,101688.53
2022-08-26T13:32:06.789Z,101688.44
2022-08-26T13:34:38.034Z,101693.94
2022-08-26T13:37:10.188Z,101687.75
2022-08-26T13:39:38.313Z,101691.97
2022-08-26T13:42:06.359Z,101678.75
2022-08-26T13:44:41.019Z,101680.63
2022-08-26T13:47:08.946Z,101685.22
2022-08-26T13:49:40.435Z,101674.09
2022-08-26T13:52:10.572Z,101681.03
2022-08-26T13:54:38.356Z,101677.53
2022-08-26T13:57:08.593Z,101670.81
2022-08-26T13:59:36.547Z,101669.50
2022-08-26T14:02:04.861Z,101661.03
2022-08-26T14:04:35.059Z,101649.69
2022-08-26T14:07:06.705Z,101650.28
2022-08-26T14:09:38.317Z,101646.94
2022-08-26T14:12:06.879Z,101651.84
2022-08-26T14:14:34.820Z,101645.50
2022-08-26T14:17:02.979Z,101652.22
2022-08-26T14:19:31.833Z,101659.97
2022-08-26T14:22:01.566Z,101654.66
2022-08-26T14:24:31.326Z,101651.59
2022-08-26T14:26:59.522Z,101652.28
2022-08-26T14:29:29.527Z,101657.06
2022-08-26T14:32:03.215Z,101658.06
2022-08-26T14:34:37.158Z,101655.00
2022-08-26T14:37:07.793Z,101653.16
2022-08-26T14:39:38.183Z,101652.59
2022-08-26T14:42:06.728Z,101649.94
2022-08-26T14:44:35.256Z,101649.63
2022-08-26T14:47:06.690Z,101652.03
2022-08-26T14:49:36.888Z,101647.13
2022-08-26T14:52:05.030Z,101641.19
2022-08-26T14:54:31.925Z,101643.47
2022-08-26T14:57:06.937Z,101641.81
2022-08-26T14:59:37.387Z,101639.53
2022-08-26T15:02:06.697Z,101637.84
2022-08-26T15:04:37.998Z,101638.13
2022-08-26T15:07:06.533Z,101629.84
2022-08-26T15:09:37.437Z,101634.06
2022-08-26T15:12:07.456Z,101624.81
2022-08-26T15:14:35.366Z,101625.34
2022-08-26T15:17:03.218Z,101626.94
2022-08-26T15:19:31.328Z,101620.75
2022-08-26T15:21:59.256Z,101617.94
2022-08-26T15:24:28.975Z,101622.69
2022-08-26T15:26:57.073Z,101620.16
2022-08-26T15:29:26.458Z,101619.88
2022-08-26T15:31:57.193Z,101606.97
2022-08-26T15:34:27.880Z,101611.03
2022-08-26T15:36:55.735Z,101609.59
2022-08-26T15:39:23.578Z,101603.28
2022-08-26T15:41:51.836Z,101601.06
2022-08-26T15:44:19.863Z,101595.00
2022-08-26T15:46:54.241Z,101594.50
2022-08-26T15:49:29.509Z,101594.78
2022-08-26T15:51:57.454Z,101588.03
2022-08-26T15:54:25.585Z,101585.22
2022-08-26T15:56:54.034Z,101578.63
2022-08-26T15:59:23.094Z,101568.53
2022-08-26T16:01:53.394Z,101569.38
2022-08-26T16:04:25.830Z,101564.72
2022-08-26T16:06:55.307Z,101565.59
2022-08-26T16:09:29.443Z,101560.53
2022-08-26T16:11:58.536Z,101559.41
2022-08-26T16:14:27.205Z,101554.91
2022-08-26T16:16:59.639Z,101565.25
2022-08-26T16:19:29.687Z,101555.44
2022-08-26T16:21:57.580Z,101549.41
2022-08-26T16:24:30.552Z,101553.84
2022-08-26T16:26:59.070Z,101535.69
2022-08-26T16:29:27.158Z,101538.38
2022-08-26T16:31:58.498Z,101543.38
2022-08-26T16:34:28.507Z,101549.56
2022-08-26T16:36:56.331Z,101550.78
2022-08-26T16:39:26.232Z,101544.00
2022-08-26T16:41:56.399Z,101548.09
2022-08-26T16:44:24.059Z,101546.41
2022-08-26T16:47:01.569Z,101546.38
2022-08-26T16:49:29.636Z,101550.56
2022-08-26T16:51:57.520Z,101546.53
2022-08-26T16:54:27.496Z,101542.84
2022-08-26T16:56:57.907Z,101546.28
2022-08-26T16:59:26.119Z,101546.81
2022-08-26T17:01:56.158Z,101550.06
2022-08-26T17:04:27.459Z,101547.53
2022-08-26T17:06:55.843Z,101545.97
2022-08-26T17:09:26.131Z,101548.00
2022-08-26T17:11:56.080Z,101548.00
2022-08-26T17:14:24.223Z,101544.88
2022-08-26T17:16:55.578Z,101540.50
2022-08-26T17:19:27.366Z,101545.53
2022-08-26T17:21:55.255Z,101544.81
2022-08-26T17:24:25.120Z,101543.84
2022-08-26T17:26:55.721Z,101552.53
2022-08-26T17:29:23.611Z,101552.28
2022-08-26T17:31:53.452Z,101554.47
2022-08-26T17:34:24.076Z,101557.59
2022-08-26T17:36:53.565Z,101560.25
2022-08-26T17:39:21.575Z,101551.63
2022-08-26T17:41:51.726Z,101545.25
2022-08-26T17:44:19.561Z,101548.41
2022-08-26T17:46:49.565Z,101550.47
2022-08-26T17:49:19.639Z,101549.66
2022-08-26T17:51:47.436Z,101550.25
2022-08-26T17:54:18.789Z,101553.41
2022-08-26T17:56:46.636Z,101547.13
2022-08-26T17:59:14.404Z,101551.13
2022-08-26T18:01:44.189Z,101553.66
2022-08-26T18:04:15.016Z,101554.13
2022-08-26T18:06:43.359Z,101547.88
2022-08-26T18:09:14.042Z,101547.44
2022-08-26T18:11:45.042Z,101540.19
2022-08-26T18:14:12.870Z,101545.75
2022-08-26T18:16:43.945Z,101545.81
2022-08-26T18:19:14.105Z,101553.19
2022-08-26T18:21:41.898Z,101554.63
2022-08-26T18:24:13.937Z,101551.56
2022-08-26T18:26:48.947Z,101553.34
2022-08-26T18:29:20.100Z,101556.44
2022-08-26T18:31:50.168Z,101554.25
2022-08-26T18:34:19.421Z,101561.50
2022-08-26T18:36:49.348Z,101558.06
2022-08-26T18:39:19.671Z,101554.16
2022-08-26T18:41:55.402Z,101548.81
2022-08-26T18:44:24.348Z,101553.44
2022-08-26T18:46:52.964Z,101540.53
2022-08-26T18:49:23.736Z,101541.22
2022-08-26T18:51:54.728Z,101541.00
2022-08-26T18:54:23.021Z,101546.13
2022-08-26T18:56:52.444Z,101543.94
2022-08-26T18:59:20.549Z,101544.19
2022-08-26T19:01:57.956Z,101550.84
2022-08-26T19:04:28.545Z,101546.28
2022-08-26T19:06:56.843Z,101551.19
2022-08-26T19:09:26.467Z,101546.28
2022-08-26T19:11:58.915Z,101545.06
2022-08-26T19:14:29.610Z,101548.47
2022-08-26T19:16:57.634Z,101540.53
2022-08-26T19:19:25.660Z,101544.97
2022-08-26T19:21:55.968Z,101546.56
2022-08-26T19:24:27.308Z,101545.28
2022-08-26T19:27:00.422Z,101544.97
2022-08-26T19:29:31.121Z,101538.09
2022-08-26T19:31:59.329Z,101537.78
2022-08-26T19:34:28.182Z,101540.53
2022-08-26T19:36:58.530Z,101541.56
2022-08-26T19:39:26.354Z,101531.00
2022-08-26T19:41:54.429Z,101539.53
2022-08-26T19:44:53.681Z,101536.91
2022-08-26T19:47:24.181Z,101535.22
2022-08-26T19:49:55.382Z,101524.44
2022-08-26T19:52:23.826Z,101524.84
2022-08-26T19:55:03.492Z,101530.13
2022-08-26T19:57:31.515Z,101531.50
2022-08-26T20:00:01.278Z,101523.56
2022-08-26T20:02:29.727Z,101517.97
2022-08-26T20:04:58.023Z,101527.69
2022-08-26T20:07:28.441Z,101510.91
2022-08-26T20:09:56.379Z,101521.56
2022-08-26T20:12:24.920Z,101519.66
2022-08-26T20:14:52.842Z,101513.66
2022-08-26T20:17:24.671Z,101511.00
2022-08-26T20:20:14.705Z,101517.66
2022-08-26T20:23:00.495Z,101511.44
2022-08-26T20:25:28.452Z,101514.81
2022-08-26T20:27:56.388Z,101516.84
2022-08-26T20:30:24.747Z,101510.19
2022-08-26T20:32:54.311Z,101510.31
2022-08-26T20:35:22.811Z,101514.94
2022-08-26T20:37:55.048Z,101505.84
2022-08-26T20:40:23.294Z,101506.91
2022-08-26T20:42:51.716Z,101509.97
2022-08-26T20:45:24.024Z,101507.34
2022-08-26T20:47:53.291Z,101509.88
2022-08-26T20:50:21.462Z,101508.19
2022-08-26T20:52:53.516Z,101511.38
2022-08-26T20:55:21.526Z,101514.13
2022-08-26T20:57:49.886Z,101511.56
2022-08-26T21:00:26.582Z,101505.88
2022-08-26T21:02:58.283Z,101513.47
2022-08-26T21:05:28.405Z,101511.56
2022-08-26T21:07:58.445Z,101509.25
2022-08-26T21:10:31.291Z,101503.09
2022-08-26T21:12:59.417Z,101491.69
2022-08-26T21:15:27.395Z,101490.31
2022-08-26T21:17:57.328Z,101484.25
2022-08-26T21:20:28.845Z,101485.59
2022-08-26T21:22:59.435Z,101478.69
2022-08-26T21:25:27.604Z,101473.78
2022-08-26T21:27:55.731Z,101475.41
2022-08-26T21:30:26.016Z,101475.88
2022-08-26T21:32:53.945Z,101469.69
2022-08-26T21:35:21.870Z,101474.63
2022-08-26T21:37:55.552Z,101480.56
2022-08-26T21:40:23.642Z,101477.06
2022-08-26T21:42:51.817Z,101474.88
2022-08-26T21:45:24.366Z,101471.38
2022-08-26T21:47:52.300Z,101474.03
2022-08-26T21:50:20.461Z,101473.16
2022-08-26T21:52:54.176Z,101472.94
2022-08-26T21:55:22.115Z,101484.09
2022-08-26T21:57:50.098Z,101478.81
2022-08-26T22:00:22.749Z,101485.06
2022-08-26T22:02:50.608Z,101491.66
2022-08-26T22:05:18.835Z,101488.50
2022-08-26T22:07:51.153Z,101479.59
2022-08-26T22:10:20.609Z,101479.59
2022-08-26T22:12:48.726Z,101484.22
2022-08-26T22:15:19.146Z,101482.53
2022-08-26T22:17:46.989Z,101484.88
2022-08-26T22:20:16.697Z,101481.59
2022-08-26T22:22:49.042Z,101477.50
2022-08-26T22:25:20.646Z,101471.69
2022-08-26T22:27:48.576Z,101473.97
2022-08-26T22:30:18.605Z,101472.59
2022-08-26T22:32:48.749Z,101465.56
2022-08-26T22:35:28.215Z,101465.75
2022-08-26T22:38:02.601Z,101462.19
2022-08-26T22:40:32.051Z,101461.34
2022-08-26T22:43:00.475Z,101464.03
2022-08-26T22:45:33.047Z,101456.59
2022-08-26T22:48:04.671Z,101454.16
2022-08-26T22:50:36.986Z,101451.06
2022-08-26T22:53:05.505Z,101461.03
2022-08-26T22:55:36.704Z,101461.44
2022-08-26T22:58:07.052Z,101462.81
2022-08-26T23:00:35.162Z,101455.16
2022-08-26T23:03:05.358Z,101448.06
2022-08-26T23:05:33.575Z,101450.69
2022-08-26T23:08:01.487Z,101448.69
2022-08-26T23:10:34.693Z,101435.78
2022-08-26T23:13:04.497Z,101439.47
2022-08-26T23:15:35.012Z,101433.66
2022-08-26T23:18:05.517Z,101430.03
2022-08-26T23:20:33.646Z,101419.25
2022-08-26T23:23:03.878Z,101425.56
2022-08-26T23:25:34.446Z,101418.59
2022-08-26T23:28:04.201Z,101416.19
2022-08-26T23:30:34.543Z,101416.66
2022-08-26T23:33:04.226Z,101411.25
2022-08-26T23:35:31.359Z,101405.91
2022-08-26T23:38:02.460Z,101412.19
2022-08-26T23:40:38.580Z,101401.94
2022-08-26T23:43:12.575Z,101395.47
2022-08-26T23:45:42.898Z,101393.53
2022-08-26T23:48:12.752Z,101385.97
2022-08-26T23:51:00.160Z,101380.19
2022-08-26T23:53:30.325Z,101385.50
2022-08-26T23:56:00.521Z,101380.81
2022-08-26T23:58:31.868Z,101370.19
